Aviation Digital Data Service (ADDS)

Output produced by METARs form (2307 UTC 01 February 2023)
found at http://www.aviationweather.gov/metar/data/
 
KMGM 012253Z 31005KT 10SM OVC023 13/10 A3022 RMK AO2 SLP233 T01330100
KMGM 012210Z 32006KT 10SM SCT013 OVC021 14/11 A3022 RMK AO2 T01390106
KMGM 011855Z 0119/0218 33008KT P6SM OVC009 
     FM012100 33006KT P6SM OVC012 
     FM020700 VRB03KT P6SM OVC008 
     FM021300 VRB04KT P6SM OVC008 
     PROB30 0213/0215 4SM -SHRA BR OVC004